createdAt,value
2018-02-13T20:16:18.075Z,3.18
2018-02-13T20:17:10.356Z,3.12
2018-02-13T20:19:06.228Z,3.20
2018-02-13T20:20:06.167Z,3.04
2018-02-13T20:22:02.031Z,3.22
2018-02-13T20:23:01.984Z,3.07
2018-02-13T20:24:55.336Z,3.00
2018-02-13T20:25:55.292Z,3.08
2018-02-13T20:27:48.647Z,2.86
2018-02-13T20:28:48.606Z,2.79
2018-02-13T20:30:41.982Z,2.82
2018-02-13T20:31:41.925Z,2.82
2018-02-13T20:33:35.279Z,2.84
2018-02-13T20:34:35.237Z,2.71
2018-02-13T20:36:31.101Z,2.69
2018-02-13T20:37:31.052Z,2.73
2018-02-13T20:39:25.283Z,2.68
2018-02-13T20:40:25.239Z,2.71
2018-02-13T20:42:18.617Z,2.68
2018-02-13T20:43:18.544Z,2.57
2018-02-13T20:45:11.888Z,2.69
2018-02-13T20:46:11.846Z,2.53
2018-02-13T20:48:05.217Z,2.53
2018-02-13T20:49:05.174Z,2.53
2018-02-13T20:50:58.519Z,2.63
2018-02-13T20:51:58.474Z,2.54
2018-02-13T20:53:54.328Z,2.68
2018-02-13T20:54:54.383Z,2.68
2018-02-13T20:56:48.537Z,2.57
2018-02-13T20:57:48.483Z,2.63
2018-02-13T20:59:44.338Z,2.47
2018-02-13T21:00:44.293Z,2.54
2018-02-13T21:02:40.142Z,2.42
2018-02-13T21:03:40.095Z,2.35
2018-02-13T21:05:33.200Z,2.30
2018-02-13T21:06:33.127Z,2.33
2018-02-13T21:08:28.979Z,2.29
2018-02-13T21:09:29.010Z,2.14
2018-02-13T21:10:28.919Z,2.25
2018-02-13T21:11:28.887Z,2.25
2018-02-13T21:12:28.859Z,2.19
2018-02-13T21:13:28.864Z,2.18
2018-02-13T21:14:28.811Z,2.14
2018-02-13T21:15:28.778Z,2.19
2018-02-13T21:16:28.751Z,2.06
2018-02-13T21:17:28.726Z,2.06
2018-02-13T21:18:28.706Z,2.22
2018-02-13T21:19:28.676Z,2.28
2018-02-13T21:20:28.645Z,2.19
2018-02-13T21:21:28.619Z,2.30
2018-02-13T21:22:28.634Z,2.36
2018-02-13T21:23:28.570Z,2.25
2018-02-13T21:24:28.540Z,2.25
2018-02-13T21:25:28.512Z,2.17
2018-02-13T21:26:28.491Z,2.11
2018-02-13T21:27:28.460Z,2.15
2018-02-13T21:28:28.432Z,2.25
2018-02-13T21:29:28.413Z,2.24
2018-02-13T21:30:28.381Z,2.22
2018-02-13T21:31:28.352Z,2.07
2018-02-13T21:32:28.326Z,2.17
2018-02-13T21:33:28.298Z,2.14
2018-02-13T21:34:28.274Z,2.11
2018-02-13T21:35:28.246Z,2.06
2018-02-13T21:36:28.219Z,2.10
2018-02-13T21:37:28.194Z,2.03
2018-02-13T21:38:28.172Z,2.06
2018-02-13T21:39:28.145Z,2.10
2018-02-13T21:40:28.115Z,2.01
2018-02-13T21:41:28.092Z,2.11
2018-02-13T21:42:28.061Z,2.07
2018-02-13T21:43:28.034Z,2.04
2018-02-13T21:44:28.015Z,2.04
2018-02-13T21:45:27.983Z,1.89
2018-02-13T21:46:27.993Z,2.04
2018-02-13T21:47:27.928Z,1.97
2018-02-13T21:48:27.904Z,2.00
2018-02-13T21:49:27.875Z,1.99
2018-02-13T21:50:27.848Z,1.93
2018-02-13T21:51:27.823Z,1.89
2018-02-13T21:52:27.794Z,1.85
2018-02-13T21:53:27.770Z,1.85
2018-02-13T21:54:27.742Z,1.84
2018-02-13T21:55:27.715Z,1.91
2018-02-13T21:56:27.689Z,1.89
2018-02-13T21:57:27.667Z,1.89
2018-02-13T21:58:27.635Z,1.87
2018-02-13T21:59:27.609Z,1.89
2018-02-13T22:00:27.583Z,1.89
2018-02-13T22:01:27.557Z,1.89
2018-02-13T22:02:27.531Z,1.95
2018-02-13T22:03:27.502Z,1.89
2018-02-13T22:04:27.476Z,1.89
2018-02-13T22:05:27.449Z,2.03
2018-02-13T22:06:27.422Z,1.99
2018-02-13T22:07:27.399Z,2.04
2018-02-13T22:08:27.370Z,1.95
2018-02-13T22:09:27.342Z,1.93
2018-02-13T22:10:27.322Z,1.82
2018-02-13T22:11:27.290Z,1.84
2018-02-13T22:12:27.262Z,1.91
2018-02-13T22:13:27.239Z,1.87
2018-02-13T22:14:27.208Z,1.82
2018-02-13T22:15:27.185Z,1.84
2018-02-13T22:16:27.169Z,1.80
2018-02-13T22:17:27.129Z,1.80
2018-02-13T22:18:27.106Z,1.84
2018-02-13T22:19:27.077Z,1.75
2018-02-13T22:20:27.050Z,1.78
2018-02-13T22:21:27.089Z,1.77
2018-02-13T22:22:27.003Z,1.71
2018-02-13T22:23:26.969Z,1.81
2018-02-13T22:24:26.945Z,1.84
2018-02-13T22:25:26.917Z,1.74
2018-02-13T22:26:26.892Z,1.60
2018-02-13T22:27:26.861Z,1.59
2018-02-13T22:28:26.839Z,1.48
2018-02-13T22:29:26.808Z,1.56
2018-02-13T22:30:26.783Z,1.59
2018-02-13T22:31:26.759Z,1.62
2018-02-13T22:32:26.728Z,1.62
2018-02-13T22:33:26.702Z,1.69
2018-02-13T22:34:26.678Z,1.73
2018-02-13T22:35:26.648Z,1.67
2018-02-13T22:36:26.626Z,1.74
2018-02-13T22:37:26.597Z,1.67
2018-02-13T22:38:26.569Z,1.75
2018-02-13T22:39:26.541Z,1.78
2018-02-13T22:40:26.516Z,1.77
2018-02-13T22:41:26.488Z,1.78
2018-02-13T22:42:26.460Z,1.69
2018-02-13T22:43:26.436Z,1.75
2018-02-13T22:44:26.407Z,1.69
2018-02-13T22:45:26.384Z,1.71
2018-02-13T22:46:26.354Z,1.62
2018-02-13T22:47:26.337Z,1.63
2018-02-13T22:48:26.304Z,1.64
2018-02-13T22:49:26.273Z,1.64
2018-02-13T22:50:26.250Z,1.59
2018-02-13T22:51:26.229Z,1.53
2018-02-13T22:52:26.197Z,1.42
2018-02-13T22:53:26.167Z,1.44
2018-02-13T22:54:26.140Z,1.35
2018-02-13T22:55:26.122Z,1.41
2018-02-13T22:56:26.088Z,1.34
2018-02-13T22:57:26.065Z,1.36
2018-02-13T22:58:26.035Z,1.45
2018-02-13T22:59:26.008Z,1.45
2018-02-13T23:00:25.986Z,1.57
2018-02-13T23:01:25.955Z,1.55
2018-02-13T23:02:25.936Z,1.57
2018-02-13T23:03:25.901Z,1.52
2018-02-13T23:04:25.897Z,1.63
2018-02-13T23:05:25.848Z,1.63
2018-02-13T23:06:25.825Z,1.62
2018-02-13T23:07:25.795Z,1.62
2018-02-13T23:08:40.541Z,1.67
2018-02-13T23:09:25.775Z,1.59
2018-02-13T23:10:25.714Z,1.73
2018-02-13T23:11:25.700Z,1.60
2018-02-13T23:12:25.662Z,1.66
2018-02-13T23:13:25.632Z,1.56
2018-02-13T23:14:25.621Z,1.60
2018-02-13T23:15:25.581Z,1.62
2018-02-13T23:16:25.557Z,1.64
2018-02-13T23:17:25.530Z,1.62
2018-02-13T23:18:25.500Z,1.57
2018-02-13T23:19:25.472Z,1.53
2018-02-13T23:20:26.035Z,1.46
2018-02-13T23:21:25.420Z,1.56
2018-02-13T23:22:25.390Z,1.53
2018-02-13T23:23:25.367Z,1.44
2018-02-13T23:24:25.340Z,1.39
2018-02-13T23:25:25.309Z,1.31
2018-02-13T23:26:25.320Z,1.28
2018-02-13T23:27:25.261Z,1.38
2018-02-13T23:28:25.232Z,1.41
2018-02-13T23:29:25.209Z,1.31
2018-02-13T23:30:25.178Z,1.36
2018-02-13T23:31:25.149Z,1.30
2018-02-13T23:32:25.126Z,1.38
2018-02-13T23:33:25.097Z,1.41
2018-02-13T23:34:25.070Z,1.41
2018-02-13T23:35:25.049Z,1.34
2018-02-13T23:36:25.016Z,1.31
2018-02-13T23:37:24.993Z,1.36
2018-02-13T23:38:24.966Z,1.26
2018-02-13T23:40:57.015Z,1.26
2018-02-13T23:41:56.966Z,1.34
2018-02-13T23:43:52.824Z,1.30
2018-02-13T23:44:52.779Z,1.18
2018-02-13T23:46:46.151Z,1.13
2018-02-13T23:47:46.105Z,1.21
2018-02-13T23:49:39.447Z,1.17
2018-02-13T23:50:39.402Z,1.17
2018-02-13T23:52:32.752Z,1.16
2018-02-13T23:53:32.711Z,1.13
2018-02-13T23:55:26.060Z,1.16
2018-02-13T23:56:26.015Z,1.09
2018-02-13T23:58:19.478Z,1.06
2018-02-13T23:59:19.330Z,1.06
